Time;durP1;ratioP1;P1;durP2;ratioP2;P2;SDS_P1;SDS_P2;PMS_P1;PMS_P2;Temp;Humidity;BMP_temperature;BMP_pressure;BME280_temperature;BME280_humidity;BME280_pressure;Samples;Min_cycle;Max_cycle;Signal;HPM_P1;HPM_P2
2023/12/13 00:04:18;;;;;;;57.97;29.37;;;2.50;99.90;;;;;;9891524;30;20431;-78
2023/12/13 00:09:39;;;;;;;55.60;28.53;;;2.60;99.90;;;;;;9891312;30;20241;-78
2023/12/13 00:15:01;;;;;;;59.70;28.80;;;2.60;99.10;;;;;;9892237;30;20197;-77
2023/12/13 00:20:22;;;;;;;57.10;27.83;;;2.60;1.00;;;;;;9881631;30;20241;-77
2023/12/13 00:25:43;;;;;;;53.67;27.97;;;2.60;1.00;;;;;;9879188;30;20271;-77
2023/12/13 00:31:05;;;;;;;54.27;27.87;;;2.50;29.80;;;;;;9911088;30;20211;-77
2023/12/13 00:36:26;;;;;;;53.47;29.53;;;2.50;1.00;;;;;;9921981;30;20194;-78
2023/12/13 00:41:47;;;;;;;59.93;31.13;;;2.50;99.90;;;;;;9855162;30;20452;-77
2023/12/13 00:47:08;;;;;;;58.20;30.97;;;2.60;71.50;;;;;;9854723;30;20199;-78
2023/12/13 00:52:31;;;;;;;48.67;27.20;;;2.50;1.00;;;;;;9866402;30;20513;-77
2023/12/13 00:57:52;;;;;;;39.17;23.70;;;2.50;1.00;;;;;;9866345;30;20226;-77
2023/12/13 01:03:13;;;;;;;44.63;23.13;;;2.50;1.00;;;;;;9853337;30;20402;-77
2023/12/13 01:08:36;;;;;;;41.27;22.07;;;2.40;1.00;;;;;;9872205;30;20216;-77
2023/12/13 01:13:57;;;;;;;41.60;22.87;;;2.30;1.00;;;;;;9916493;30;20214;-78
2023/12/13 01:19:18;;;;;;;35.67;21.27;;;2.30;99.90;;;;;;9880858;30;20455;-77
2023/12/13 01:24:40;;;;;;;38.33;19.97;;;2.30;99.90;;;;;;9891046;30;20210;-77
2023/12/13 01:30:00;;;;;;;31.87;18.77;;;2.40;99.90;;;;;;9901910;30;20208;-77
2023/12/13 01:35:21;;;;;;;29.13;17.93;;;2.40;99.90;;;;;;9926658;29;20288;-77
2023/12/13 01:40:50;;;;;;;29.57;16.70;;;2.50;99.90;;;;;;9853780;30;20529;-77
2023/12/13 01:46:16;;;;;;;29.10;17.07;;;2.50;99.90;;;;;;9852794;30;20214;-77
2023/12/13 01:51:39;;;;;;;26.37;17.13;;;2.50;99.90;;;;;;9853827;30;20230;-78
2023/12/13 01:57:00;;;;;;;30.33;16.83;;;2.50;99.90;;;;;;9854765;30;20578;-78
2023/12/13 02:02:22;;;;;;;27.30;15.93;;;2.50;99.90;;;;;;9859344;30;20330;-77
2023/12/13 02:07:43;;;;;;;29.80;16.60;;;2.50;99.90;;;;;;9874969;30;20289;-77
2023/12/13 02:13:05;;;;;;;26.43;15.43;;;2.50;59.10;;;;;;9895593;30;20365;-78
2023/12/13 02:18:27;;;;;;;25.83;15.27;;;2.50;14.80;;;;;;9908287;30;20286;-77
2023/12/13 02:23:51;;;;;;;25.80;15.70;;;2.50;1.00;;;;;;9896367;30;20446;-78
2023/12/13 02:29:13;;;;;;;28.70;17.20;;;2.60;58.70;;;;;;9901226;30;20199;-77
2023/12/13 02:34:34;;;;;;;33.23;17.50;;;2.60;16.90;;;;;;9932406;30;20213;-78
2023/12/13 02:39:56;;;;;;;26.50;16.27;;;2.50;1.00;;;;;;9867584;29;20319;-78
2023/12/13 02:45:17;;;;;;;25.13;15.60;;;2.50;1.00;;;;;;9858123;30;20200;-78
2023/12/13 02:50:39;;;;;;;22.67;14.30;;;2.40;33.80;;;;;;9858681;30;20263;-78
2023/12/13 02:56:00;;;;;;;26.47;14.57;;;2.50;80.10;;;;;;9895734;30;20207;-78
2023/12/13 03:01:21;;;;;;;23.67;13.77;;;2.50;99.90;;;;;;9881600;30;20427;-78
2023/12/13 03:06:43;;;;;;;20.53;12.40;;;2.50;99.90;;;;;;9892608;30;20215;-78
2023/12/13 03:12:04;;;;;;;17.43;11.30;;;2.50;99.90;;;;;;9883909;30;20309;-78
2023/12/13 03:17:25;;;;;;;17.80;10.97;;;2.50;1.00;;;;;;9893687;30;20386;-77
2023/12/13 03:22:47;;;;;;;16.20;11.00;;;2.50;1.00;;;;;;9880739;30;20544;-77
2023/12/13 03:28:09;;;;;;;33.93;18.83;;;2.50;1.00;;;;;;9894075;30;20213;-78
2023/12/13 03:33:30;;;;;;;27.50;14.67;;;2.50;1.00;;;;;;9893993;30;20199;-78
2023/12/13 03:38:51;;;;;;;19.80;10.70;;;2.50;1.00;;;;;;9867820;30;20591;-77
2023/12/13 03:44:12;;;;;;;14.80;8.77;;;2.40;1.00;;;;;;9856866;30;20286;-77
2023/12/13 03:49:33;;;;;;;16.40;9.50;;;2.40;1.00;;;;;;9856838;30;20199;-77
2023/12/13 03:54:54;;;;;;;19.43;11.03;;;2.40;1.00;;;;;;9877062;30;20211;-78
2023/12/13 04:00:16;;;;;;;15.23;10.30;;;2.40;99.90;;;;;;9893106;30;20225;-77
2023/12/13 04:05:37;;;;;;;14.07;9.60;;;2.40;99.90;;;;;;9878536;30;20202;-78
2023/12/13 04:10:58;;;;;;;13.30;8.20;;;2.40;99.90;;;;;;9906130;29;20269;-77
2023/12/13 04:16:19;;;;;;;14.83;8.20;;;2.50;99.90;;;;;;9892528;30;20282;-78
2023/12/13 04:21:40;;;;;;;15.90;8.83;;;2.50;99.90;;;;;;9890496;30;20245;-78
2023/12/13 04:27:02;;;;;;;13.00;7.33;;;2.50;99.90;;;;;;9892272;30;20216;-78
2023/12/13 04:32:23;;;;;;;12.00;6.67;;;2.40;99.90;;;;;;9920887;30;20203;-77
2023/12/13 04:37:45;;;;;;;12.17;6.47;;;2.50;1.00;;;;;;9889023;29;20219;-78
2023/12/13 04:43:06;;;;;;;13.73;6.90;;;2.50;8.30;;;;;;9855066;30;20231;-77
2023/12/13 04:48:27;;;;;;;11.10;6.17;;;2.50;1.00;;;;;;9866352;30;20399;-78
2023/12/13 04:53:48;;;;;;;11.67;6.63;;;2.50;1.00;;;;;;9853804;30;20207;-78
2023/12/13 04:59:10;;;;;;;8.87;5.93;;;2.50;1.00;;;;;;9853391;30;20275;-79
2023/12/13 05:04:31;;;;;;;15.40;8.50;;;2.50;1.00;;;;;;9854716;30;20249;-79
2023/12/13 05:09:54;;;;;;;13.83;8.00;;;2.50;1.00;;;;;;9887965;30;20315;-77
2023/12/13 05:15:15;;;;;;;13.90;8.03;;;2.40;80.70;;;;;;9891134;30;20431;-78
2023/12/13 05:20:36;;;;;;;13.83;8.60;;;2.40;1.00;;;;;;9889838;30;20237;-77
2023/12/13 05:25:58;;;;;;;20.27;11.67;;;2.40;1.00;;;;;;9889853;30;20290;-77
2023/12/13 05:31:23;;;;;;;18.80;11.67;;;2.50;1.00;;;;;;9892225;30;20212;-77
2023/12/13 05:36:44;;;;;;;21.40;13.03;;;2.50;99.90;;;;;;9884917;30;20256;-77
2023/12/13 05:42:05;;;;;;;22.27;11.90;;;2.50;99.90;;;;;;9861150;30;20241;-78
2023/12/13 05:47:26;;;;;;;28.73;14.23;;;2.50;1.00;;;;;;9860800;30;20202;-79
2023/12/13 05:52:48;;;;;;;31.00;17.93;;;2.50;1.00;;;;;;9859605;30;20252;-77
2023/12/13 05:58:09;;;;;;;27.27;15.10;;;2.50;99.90;;;;;;9860691;30;20231;-78
2023/12/13 06:03:30;;;;;;;35.00;20.23;;;2.50;1.00;;;;;;9859369;30;20402;-77
2023/12/13 06:08:51;;;;;;;40.87;24.13;;;2.40;99.90;;;;;;9887542;30;20311;-80
2023/12/13 06:14:13;;;;;;;42.43;25.43;;;2.40;1.00;;;;;;9888030;30;20259;-79
2023/12/13 06:19:34;;;;;;;54.63;30.23;;;2.50;1.00;;;;;;9895495;30;20256;-78
2023/12/13 06:24:55;;;;;;;39.10;23.67;;;2.50;99.90;;;;;;9896308;30;20207;-77
2023/12/13 06:30:16;;;;;;;28.87;16.87;;;2.50;99.90;;;;;;9909267;30;20384;-77
2023/12/13 06:35:37;;;;;;;24.90;15.97;;;2.40;1.00;;;;;;9920816;30;20215;-77
2023/12/13 06:40:58;;;;;;;35.77;21.90;;;2.40;99.90;;;;;;9859091;30;20416;-77
2023/12/13 06:46:20;;;;;;;51.17;30.10;;;2.40;99.90;;;;;;9878440;30;20212;-78
2023/12/13 06:51:41;;;;;;;63.10;36.57;;;2.40;1.00;;;;;;9895544;30;20205;-77
2023/12/13 06:57:03;;;;;;;53.03;29.30;;;2.40;1.00;;;;;;9895193;30;20224;-78
2023/12/13 07:02:25;;;;;;;126.00;50.13;;;2.40;99.90;;;;;;9894149;30;20250;-77
2023/12/13 07:07:47;;;;;;;119.43;44.80;;;2.40;99.90;;;;;;9876597;30;20279;-77
2023/12/13 07:13:09;;;;;;;151.80;47.10;;;2.40;99.90;;;;;;9894454;30;20317;-77
2023/12/13 07:18:30;;;;;;;114.93;37.53;;;2.40;1.00;;;;;;9894008;30;20210;-77
2023/12/13 07:23:51;;;;;;;95.20;32.27;;;2.40;99.90;;;;;;9880133;30;20240;-76
2023/12/13 07:29:13;;;;;;;81.83;24.33;;;2.40;1.00;;;;;;9894102;30;20225;-78
2023/12/13 07:34:34;;;;;;;89.10;27.20;;;2.50;99.90;;;;;;9892791;30;20218;-77
2023/12/13 07:39:55;;;;;;;54.00;22.10;;;2.50;1.00;;;;;;9911933;30;20235;-77
2023/12/13 07:45:18;;;;;;;57.83;22.10;;;2.50;1.00;;;;;;9903542;30;20206;-78
2023/12/13 07:50:39;;;;;;;69.17;25.73;;;2.50;1.00;;;;;;9930527;29;20396;-77
2023/12/13 07:56:01;;;;;;;79.77;26.53;;;2.50;99.90;;;;;;9910575;29;20422;-78
2023/12/13 08:01:23;;;;;;;42.37;17.27;;;2.50;99.90;;;;;;9929812;29;20225;-78
2023/12/13 08:06:44;;;;;;;84.47;24.80;;;2.60;99.90;;;;;;9888934;30;20221;-79
2023/12/13 08:12:05;;;;;;;93.07;32.97;;;2.60;99.90;;;;;;9896876;30;20245;-77
2023/12/13 08:17:28;;;;;;;59.70;26.53;;;2.60;86.00;;;;;;9891075;30;20205;-79
2023/12/13 08:22:49;;;;;;;61.30;25.97;;;2.60;99.30;;;;;;9851930;29;20256;-81
2023/12/13 08:28:11;;;;;;;63.10;25.27;;;2.70;1.00;;;;;;9868584;30;20556;-79
2023/12/13 08:33:32;;;;;;;55.30;23.90;;;2.60;99.90;;;;;;9880687;30;20223;-77
2023/12/13 08:38:54;;;;;;;45.33;21.20;;;2.70;99.90;;;;;;9886888;30;20501;-78
2023/12/13 08:44:15;;;;;;;41.33;21.77;;;2.70;99.90;;;;;;9892390;30;20824;-79
2023/12/13 08:49:37;;;;;;;32.20;15.80;;;2.70;99.90;;;;;;9923757;29;20202;-80
2023/12/13 08:54:58;;;;;;;26.20;13.63;;;2.80;99.90;;;;;;9922931;30;20241;-78
2023/12/13 09:00:19;;;;;;;40.37;16.30;;;2.80;1.00;;;;;;9900686;30;20245;-78
2023/12/13 09:05:40;;;;;;;30.07;12.57;;;2.90;90.80;;;;;;9891444;30;20428;-78
2023/12/13 09:11:02;;;;;;;21.93;11.33;;;2.80;22.90;;;;;;9874776;30;20257;-78
2023/12/13 09:16:23;;;;;;;23.17;11.70;;;2.90;99.90;;;;;;9898363;30;20543;-79
2023/12/13 09:21:45;;;;;;;30.73;14.47;;;2.90;99.90;;;;;;9885316;30;20424;-78
2023/12/13 09:27:07;;;;;;;24.77;12.07;;;2.90;1.00;;;;;;9897159;30;20398;-79
2023/12/13 09:32:30;;;;;;;17.23;9.30;;;2.90;99.90;;;;;;9862031;30;20513;-79
2023/12/13 09:37:51;;;;;;;27.03;11.53;;;2.90;1.00;;;;;;9862086;30;20202;-84
2023/12/13 09:43:13;;;;;;;25.47;11.83;;;3.00;1.00;;;;;;9860754;30;20233;-82
2023/12/13 09:48:37;;;;;;;19.50;9.77;;;3.00;99.90;;;;;;9870751;30;20201;-78
2023/12/13 09:53:59;;;;;;;25.40;12.40;;;3.00;1.00;;;;;;9897104;30;20260;-79
2023/12/13 09:59:21;;;;;;;21.07;10.60;;;3.00;1.00;;;;;;9895963;30;20213;-79
2023/12/13 10:04:44;;;;;;;14.53;8.83;;;3.00;1.00;;;;;;9897052;30;20209;-81
2023/12/13 10:10:06;;;;;;;18.87;9.87;;;3.10;1.00;;;;;;9883197;30;20257;-81
2023/12/13 10:15:31;;;;;;;33.40;14.40;;;3.10;1.00;;;;;;9911847;30;20227;-78
2023/12/13 10:20:52;;;;;;;50.87;22.13;;;3.10;1.00;;;;;;9909467;30;20409;-78
2023/12/13 10:26:14;;;;;;;62.53;25.33;;;3.10;99.90;;;;;;9887978;30;20226;-80
2023/12/13 10:31:36;;;;;;;73.20;31.27;;;3.10;99.90;;;;;;9894233;30;20387;-82
2023/12/13 10:36:59;;;;;;;60.77;27.10;;;3.10;99.90;;;;;;9914731;30;20376;-79
2023/12/13 10:42:24;;;;;;;38.47;18.17;;;3.10;99.90;;;;;;9876741;30;20529;-78
2023/12/13 10:47:48;;;;;;;28.97;14.87;;;3.10;99.90;;;;;;9917266;30;20277;-80
2023/12/13 10:53:12;;;;;;;50.63;22.03;;;3.10;81.00;;;;;;9925745;29;20223;-78
2023/12/13 10:58:34;;;;;;;70.87;26.67;;;3.10;99.90;;;;;;9921094;30;20216;-78
2023/12/13 11:04:05;;;;;;;88.67;34.10;;;3.10;99.90;;;;;;9876456;30;20387;-76
2023/12/13 11:09:29;;;;;;;87.40;40.60;;;3.20;99.90;;;;;;9888092;30;20313;-80
2023/12/13 11:14:52;;;;;;;73.97;31.97;;;3.20;65.70;;;;;;9887965;30;20405;-77
2023/12/13 11:20:14;;;;;;;61.83;24.53;;;3.20;45.60;;;;;;9889493;30;20238;-79
2023/12/13 11:25:37;;;;;;;75.93;28.93;;;3.30;41.90;;;;;;9887991;30;20548;-79
2023/12/13 11:30:58;;;;;;;79.53;28.87;;;3.30;11.60;;;;;;9887583;30;20292;-80
2023/12/13 11:36:21;;;;;;;78.87;29.90;;;3.30;1.00;;;;;;9887357;30;20232;-81
2023/12/13 11:41:43;;;;;;;66.67;28.40;;;3.40;13.40;;;;;;9887935;30;20310;-80
2023/12/13 11:47:09;;;;;;;45.33;19.17;;;3.40;1.00;;;;;;9915333;30;20193;-79
2023/12/13 11:52:31;;;;;;;53.53;22.27;;;3.40;1.00;;;;;;9923922;30;20214;-78
2023/12/13 11:57:58;;;;;;;43.50;18.37;;;3.30;1.00;;;;;;9896134;30;20478;-79
2023/12/13 12:03:19;;;;;;;36.00;16.60;;;3.40;1.00;;;;;;9874231;30;20289;-78
2023/12/13 12:08:40;;;;;;;34.13;14.40;;;3.50;1.00;;;;;;9851587;30;20265;-79
2023/12/13 12:14:02;;;;;;;37.67;16.40;;;3.50;1.00;;;;;;9882889;30;20211;-78
2023/12/13 12:19:27;;;;;;;35.33;16.03;;;3.50;1.00;;;;;;9886812;30;20403;-79
2023/12/13 12:24:51;;;;;;;40.17;19.53;;;3.50;1.00;;;;;;9883919;30;20253;-79
2023/12/13 12:30:13;;;;;;;37.63;16.87;;;3.50;1.00;;;;;;9887298;30;20207;-80
2023/12/13 12:35:34;;;;;;;40.30;16.00;;;3.50;27.00;;;;;;9873168;30;20215;-79
2023/12/13 12:40:56;;;;;;;25.03;12.97;;;3.50;12.50;;;;;;9887020;30;20234;-79
2023/12/13 12:46:18;;;;;;;19.00;10.43;;;3.60;90.00;;;;;;9906398;30;20214;-80
2023/12/13 12:51:39;;;;;;;24.30;10.63;;;3.60;63.40;;;;;;9916845;29;20207;-80
2023/12/13 12:57:02;;;;;;;16.53;9.40;;;3.50;1.00;;;;;;9885188;30;20218;-81
2023/12/13 13:02:24;;;;;;;11.20;7.87;;;3.50;16.00;;;;;;9873394;30;20317;-80
2023/12/13 13:07:46;;;;;;;16.37;8.73;;;3.40;1.00;;;;;;9859528;30;20271;-80
2023/12/13 13:13:07;;;;;;;24.43;9.43;;;3.30;1.00;;;;;;9885547;30;20589;-80
2023/12/13 13:18:28;;;;;;;22.00;9.87;;;3.30;1.00;;;;;;9885149;30;20204;-82
2023/12/13 13:23:50;;;;;;;17.30;9.83;;;3.10;1.00;;;;;;9870643;30;20556;-78
2023/12/13 13:29:11;;;;;;;20.47;11.37;;;3.00;91.50;;;;;;9871906;30;20298;-79
2023/12/13 13:34:33;;;;;;;32.63;14.37;;;3.10;1.00;;;;;;9864766;29;20257;-79
2023/12/13 13:39:55;;;;;;;31.73;15.67;;;3.00;1.00;;;;;;9860440;30;20281;-81
2023/12/13 13:45:17;;;;;;;43.70;18.07;;;3.00;1.00;;;;;;9872146;30;20210;-81
2023/12/13 13:50:38;;;;;;;49.10;21.57;;;3.00;1.00;;;;;;9871850;30;20214;-82
2023/12/13 13:55:59;;;;;;;70.80;26.00;;;3.00;1.00;;;;;;9887657;30;20406;-79
2023/12/13 14:01:21;;;;;;;82.30;32.87;;;2.90;1.00;;;;;;9879419;30;20552;-79
2023/12/13 14:06:42;;;;;;;131.03;45.23;;;3.00;20.70;;;;;;9865514;30;20398;-80
2023/12/13 14:12:03;;;;;;;95.90;35.30;;;3.00;9.10;;;;;;9877824;30;20474;-80
2023/12/13 14:17:28;;;;;;;37.90;17.77;;;3.00;99.90;;;;;;9878732;30;20496;-79
2023/12/13 14:22:49;;;;;;;42.20;21.30;;;3.00;99.90;;;;;;9890825;30;20238;-78
2023/12/13 14:28:11;;;;;;;55.77;22.70;;;2.90;58.80;;;;;;9889521;30;20581;-78
2023/12/13 14:33:32;;;;;;;41.93;18.77;;;2.90;1.00;;;;;;9877088;30;20216;-79
2023/12/13 14:38:56;;;;;;;69.50;26.63;;;2.90;2.70;;;;;;9891617;30;20204;-79
2023/12/13 14:44:18;;;;;;;74.30;30.07;;;2.90;1.00;;;;;;9896038;30;20286;-78
2023/12/13 14:49:39;;;;;;;47.77;19.83;;;2.80;1.00;;;;;;9913730;30;20209;-78
2023/12/13 14:55:01;;;;;;;38.57;18.63;;;2.80;99.90;;;;;;9912145;29;20273;-78
2023/12/13 15:00:25;;;;;;;32.53;16.67;;;2.80;99.90;;;;;;9890930;30;20247;-79
2023/12/13 15:05:46;;;;;;;36.77;17.10;;;2.80;99.90;;;;;;9875606;30;20294;-79
2023/12/13 15:11:07;;;;;;;49.37;18.03;;;2.80;99.90;;;;;;9888675;30;20271;-78
2023/12/13 15:16:29;;;;;;;64.97;20.43;;;2.80;99.90;;;;;;9863837;30;20259;-80
2023/12/13 15:21:50;;;;;;;63.13;21.93;;;2.80;99.90;;;;;;9862543;30;20238;-78
2023/12/13 15:27:11;;;;;;;69.37;25.40;;;2.80;99.90;;;;;;9884442;30;20224;-79
2023/12/13 15:32:33;;;;;;;82.30;31.17;;;2.80;99.90;;;;;;9887343;30;20288;-79
2023/12/13 15:37:54;;;;;;;101.73;41.47;;;2.80;99.90;;;;;;9875934;30;20213;-82
2023/12/13 15:43:15;;;;;;;54.63;26.30;;;2.80;99.90;;;;;;9862225;30;20612;-79
2023/12/13 15:48:38;;;;;;;27.60;14.10;;;2.80;97.00;;;;;;9873494;30;20222;-79
2023/12/13 15:53:59;;;;;;;22.00;12.33;;;2.80;61.10;;;;;;9887967;30;20218;-80
2023/12/13 15:59:21;;;;;;;28.33;14.17;;;2.80;1.00;;;;;;9887272;30;20214;-78
2023/12/13 16:04:43;;;;;;;33.63;16.97;;;2.70;1.00;;;;;;9873547;30;20243;-82
2023/12/13 16:10:05;;;;;;;32.97;17.47;;;2.80;1.00;;;;;;9877990;30;20251;-78
2023/12/13 16:15:27;;;;;;;34.13;14.73;;;2.80;1.00;;;;;;9890321;30;20467;-80
2023/12/13 16:20:48;;;;;;;42.77;16.87;;;2.80;1.00;;;;;;9891139;30;20252;-77
2023/12/13 16:26:10;;;;;;;34.53;16.90;;;2.80;1.00;;;;;;9892166;30;20203;-77
2023/12/13 16:31:31;;;;;;;42.77;19.30;;;2.80;1.00;;;;;;9892133;30;20274;-78
2023/12/13 16:36:52;;;;;;;38.37;18.80;;;2.70;1.00;;;;;;9891439;30;20229;-81
2023/12/13 16:42:15;;;;;;;43.37;19.73;;;2.80;1.00;;;;;;9890501;30;20234;-80
2023/12/13 16:47:37;;;;;;;53.57;18.40;;;2.80;1.00;;;;;;9908233;30;20290;-79
2023/12/13 16:52:58;;;;;;;35.13;17.37;;;2.80;1.00;;;;;;9890414;30;20210;-78
2023/12/13 16:58:19;;;;;;;57.13;21.33;;;2.80;1.00;;;;;;9891180;30;20207;-78
2023/12/13 17:03:42;;;;;;;40.83;17.37;;;2.80;1.00;;;;;;9888273;30;20407;-79
2023/12/13 17:09:06;;;;;;;33.87;16.30;;;2.80;1.00;;;;;;9890984;30;20234;-78
2023/12/13 17:14:28;;;;;;;31.07;15.20;;;2.80;1.00;;;;;;9883612;30;20214;-78
2023/12/13 17:19:51;;;;;;;39.23;19.13;;;2.80;1.00;;;;;;9890386;30;20241;-78
2023/12/13 17:25:15;;;;;;;43.43;16.67;;;2.80;1.00;;;;;;9890771;30;20237;-77
2023/12/13 17:30:36;;;;;;;33.20;14.27;;;2.80;1.00;;;;;;9898563;30;20198;-78
2023/12/13 17:35:57;;;;;;;35.33;12.60;;;2.80;42.70;;;;;;9880145;30;20341;-78
2023/12/13 17:41:19;;;;;;;36.13;13.83;;;2.80;99.90;;;;;;9897145;30;20233;-80
2023/12/13 17:46:40;;;;;;;39.30;15.13;;;2.80;99.90;;;;;;9920775;30;20202;-79
2023/12/13 17:52:03;;;;;;;37.70;15.17;;;2.80;1.00;;;;;;9933730;29;20218;-79
2023/12/13 17:57:24;;;;;;;49.43;22.87;;;2.80;1.00;;;;;;9920698;30;20217;-78
2023/12/13 18:02:48;;;;;;;35.97;17.50;;;2.80;1.00;;;;;;9929025;29;20301;-81
2023/12/13 18:08:09;;;;;;;22.27;11.77;;;2.80;1.00;;;;;;9897112;30;20377;-80
2023/12/13 18:13:31;;;;;;;12.27;7.50;;;2.70;1.00;;;;;;9899750;30;20245;-78
2023/12/13 18:18:52;;;;;;;20.00;10.27;;;2.70;1.00;;;;;;9895845;30;20224;-80
2023/12/13 18:24:13;;;;;;;17.70;9.33;;;2.80;1.00;;;;;;9896355;30;20543;-79
2023/12/13 18:29:35;;;;;;;20.30;9.63;;;2.70;1.00;;;;;;9896764;30;20198;-79
2023/12/13 18:34:56;;;;;;;18.70;9.07;;;2.70;1.00;;;;;;9894710;30;20302;-78
2023/12/13 18:40:18;;;;;;;11.93;7.23;;;2.70;1.00;;;;;;9893305;30;20224;-79
2023/12/13 18:45:40;;;;;;;15.57;8.33;;;2.70;1.00;;;;;;9912171;30;20255;-78
2023/12/13 18:51:02;;;;;;;19.60;9.70;;;2.60;1.00;;;;;;9931978;29;20295;-79
2023/12/13 18:56:23;;;;;;;16.77;9.37;;;2.70;1.00;;;;;;9932644;30;20232;-78
2023/12/13 19:01:44;;;;;;;19.63;9.77;;;2.60;1.00;;;;;;9918707;30;20611;-78
2023/12/13 19:07:05;;;;;;;21.47;9.23;;;2.60;1.00;;;;;;9925725;30;20287;-79
2023/12/13 19:12:26;;;;;;;15.53;8.83;;;2.70;1.00;;;;;;9894705;30;20251;-79
2023/12/13 19:17:47;;;;;;;18.60;10.23;;;2.60;99.90;;;;;;9893945;30;20202;-79
2023/12/13 19:23:09;;;;;;;20.47;11.87;;;2.50;1.00;;;;;;9893541;30;20255;-79
2023/12/13 19:28:30;;;;;;;19.60;10.97;;;2.60;7.80;;;;;;9893429;30;20535;-78
2023/12/13 19:33:52;;;;;;;21.50;10.23;;;2.60;99.90;;;;;;9893431;30;20206;-79
2023/12/13 19:39:13;;;;;;;14.80;9.03;;;2.60;77.40;;;;;;9893356;30;20225;-79
2023/12/13 19:44:35;;;;;;;16.43;9.60;;;2.60;99.90;;;;;;9901266;30;20546;-78
2023/12/13 19:49:56;;;;;;;16.20;9.53;;;2.60;1.00;;;;;;9929526;29;20431;-78
2023/12/13 19:55:17;;;;;;;16.17;10.00;;;2.60;99.90;;;;;;9929993;30;20268;-78
2023/12/13 20:00:39;;;;;;;27.57;15.20;;;2.70;99.90;;;;;;9930478;29;20248;-80
2023/12/13 20:06:00;;;;;;;34.40;16.60;;;2.60;1.00;;;;;;9898969;30;20467;-80
2023/12/13 20:11:21;;;;;;;17.87;11.17;;;2.70;1.00;;;;;;9891413;30;20249;-78
2023/12/13 20:16:43;;;;;;;19.97;11.03;;;2.70;1.00;;;;;;9892496;30;20389;-77
2023/12/13 20:22:04;;;;;;;19.60;11.03;;;2.70;1.00;;;;;;9891415;30;20238;-81
2023/12/13 20:27:25;;;;;;;15.30;9.43;;;2.70;1.00;;;;;;9891651;30;20205;-81
2023/12/13 20:32:47;;;;;;;15.10;9.77;;;2.70;1.00;;;;;;9891610;30;20199;-78
2023/12/13 20:38:08;;;;;;;16.83;10.50;;;2.60;1.00;;;;;;9878769;30;20888;-77
2023/12/13 20:43:30;;;;;;;28.60;16.40;;;2.60;99.90;;;;;;9892081;30;20233;-79
2023/12/13 20:48:51;;;;;;;21.87;12.13;;;2.50;1.00;;;;;;9906380;29;20222;-78
2023/12/13 20:54:12;;;;;;;48.27;23.07;;;2.40;1.00;;;;;;9890911;30;20246;-78
2023/12/13 20:59:36;;;;;;;25.37;13.63;;;2.40;99.90;;;;;;9890564;30;20402;-76
2023/12/13 21:04:57;;;;;;;20.90;11.70;;;2.40;99.90;;;;;;9889394;30;20237;-79
2023/12/13 21:10:18;;;;;;;21.27;11.60;;;2.30;1.00;;;;;;9891134;30;20233;-79
2023/12/13 21:15:39;;;;;;;20.33;11.70;;;2.40;99.90;;;;;;9854534;30;20198;-80
2023/12/13 21:21:00;;;;;;;21.13;12.10;;;2.30;99.90;;;;;;9901989;30;20532;-80
2023/12/13 21:26:22;;;;;;;24.17;13.27;;;2.30;99.90;;;;;;9877877;30;20203;-81
2023/12/13 21:31:44;;;;;;;50.00;18.57;;;2.20;1.00;;;;;;9890198;30;20205;-80
2023/12/13 21:37:05;;;;;;;26.10;11.70;;;2.20;99.90;;;;;;9877511;30;20422;-78
2023/12/13 21:42:27;;;;;;;17.57;10.07;;;2.20;1.00;;;;;;9890894;30;20257;-80
2023/12/13 21:47:48;;;;;;;22.87;11.33;;;2.20;89.20;;;;;;9910364;30;20501;-80
2023/12/13 21:53:09;;;;;;;21.23;11.23;;;2.20;1.00;;;;;;9890771;30;20202;-80
2023/12/13 21:58:30;;;;;;;19.97;10.30;;;2.20;1.00;;;;;;9889786;30;20206;-80
2023/12/13 22:03:51;;;;;;;16.83;9.83;;;2.20;22.90;;;;;;9876608;30;20555;-79
2023/12/13 22:09:15;;;;;;;19.37;10.33;;;2.20;99.90;;;;;;9890565;30;20235;-80
2023/12/13 22:14:36;;;;;;;16.07;10.23;;;2.30;1.00;;;;;;9889316;30;20205;-79
2023/12/13 22:19:58;;;;;;;14.30;8.77;;;2.30;99.90;;;;;;9895802;30;20289;-81
2023/12/13 22:25:19;;;;;;;12.37;7.83;;;2.20;1.00;;;;;;9896612;30;20320;-81
2023/12/13 22:30:40;;;;;;;12.43;8.17;;;2.30;1.00;;;;;;9896390;30;20218;-81
2023/12/13 22:36:01;;;;;;;15.80;8.83;;;2.30;99.90;;;;;;9895612;30;20282;-79
2023/12/13 22:41:23;;;;;;;14.73;8.83;;;2.30;1.00;;;;;;9895475;30;20539;-79
2023/12/13 22:46:44;;;;;;;39.87;16.00;;;2.30;99.90;;;;;;9918982;30;20205;-78
2023/12/13 22:52:06;;;;;;;64.07;27.70;;;2.40;99.90;;;;;;9932971;29;20280;-79
2023/12/13 22:57:27;;;;;;;58.10;28.10;;;2.40;99.90;;;;;;9931621;29;20213;-78
2023/12/13 23:02:51;;;;;;;54.37;21.97;;;2.40;99.90;;;;;;9932375;29;20225;-78
2023/12/13 23:08:12;;;;;;;34.67;16.10;;;2.40;99.90;;;;;;9932481;29;20198;-77
2023/12/13 23:13:34;;;;;;;30.47;15.00;;;2.50;1.00;;;;;;9896336;30;20632;-77
2023/12/13 23:18:57;;;;;;;31.77;15.13;;;2.50;1.00;;;;;;9893932;30;20282;-78
2023/12/13 23:24:18;;;;;;;20.70;10.60;;;2.50;1.00;;;;;;9857540;30;20230;-78
2023/12/13 23:29:39;;;;;;;12.37;7.50;;;2.50;1.00;;;;;;9872554;30;20198;-78
2023/12/13 23:35:00;;;;;;;10.67;5.97;;;2.50;99.90;;;;;;9893408;30;20392;-78
2023/12/13 23:40:21;;;;;;;8.23;4.73;;;2.50;1.00;;;;;;9892588;30;20272;-79
2023/12/13 23:45:43;;;;;;;8.70;5.17;;;2.50;1.00;;;;;;9890835;30;20284;-77
2023/12/13 23:51:04;;;;;;;7.37;5.07;;;2.50;1.00;;;;;;9893054;30;20540;-77
2023/12/13 23:56:26;;;;;;;8.10;5.10;;;2.50;1.00;;;;;;9893449;30;20210;-78
